createdAt,value
2017-12-10T00:01:28.882Z,22.9
2017-12-10T00:11:26.758Z,23.2
2017-12-10T00:21:27.254Z,24.8
2017-12-10T00:31:26.584Z,18.8
2017-12-10T00:41:28.125Z,20.9
2017-12-10T00:51:26.338Z,16.1
2017-12-10T01:01:26.765Z,18.7
2017-12-10T01:11:28.884Z,18.6
2017-12-10T01:21:26.291Z,24.9
2017-12-10T01:31:33.506Z,17.5
2017-12-10T01:41:29.233Z,22.9
2017-12-10T01:51:32.401Z,16.9
2017-12-10T02:01:26.548Z,18.8
2017-12-10T02:11:27.928Z,19.8
2017-12-10T02:21:29.880Z,14.8
2017-12-10T02:31:26.596Z,13.3
2017-12-10T02:41:28.156Z,12.6
2017-12-10T02:51:26.182Z,13.1
2017-12-10T03:01:28.577Z,11.3
2017-12-10T03:11:29.007Z,13.1
2017-12-10T03:21:27.633Z,11.5
2017-12-10T03:31:29.386Z,10.4
2017-12-10T03:41:26.589Z,13.5
2017-12-10T03:51:27.617Z,16.1
2017-12-10T04:01:26.787Z,16.3
2017-12-10T04:11:26.953Z,17.0
2017-12-10T04:21:29.168Z,12.2
2017-12-10T04:31:26.504Z,15.1
2017-12-10T04:41:27.120Z,14.0
2017-12-10T04:51:27.058Z,14.2
2017-12-10T05:01:26.757Z,16.4
2017-12-10T05:11:26.927Z,11.5
2017-12-10T05:21:26.316Z,11.8
2017-12-10T05:31:27.028Z,15.7
2017-12-10T05:41:31.454Z,13.7
2017-12-10T05:51:26.547Z,19.7
2017-12-10T06:01:27.609Z,11.3
2017-12-10T06:11:27.113Z,13.6
2017-12-10T06:21:27.621Z,14.7
2017-12-10T06:31:26.666Z,15.7
2017-12-10T06:41:26.964Z,10.2
2017-12-10T06:51:27.289Z,15.5
2017-12-10T07:01:32.497Z,11.3
2017-12-10T07:11:26.891Z,11.4
2017-12-10T07:21:27.592Z,12.2
2017-12-10T07:31:30.261Z,9.4
2017-12-10T07:41:26.331Z,11.8
2017-12-10T07:51:28.651Z,12.0
2017-12-10T08:01:30.524Z,15.8
2017-12-10T08:11:32.156Z,11.8
2017-12-10T08:21:33.634Z,11.8
2017-12-10T08:31:33.123Z,12.9
2017-12-10T08:41:33.661Z,21.2
2017-12-10T08:51:32.422Z,12.0
2017-12-10T09:01:27.202Z,12.0
2017-12-10T09:11:28.185Z,14.2
2017-12-10T09:21:26.498Z,18.1
2017-12-10T09:31:27.636Z,42.2
2017-12-10T09:41:27.111Z,15.1
2017-12-10T09:51:28.300Z,13.8
2017-12-10T10:01:26.903Z,16.7
2017-12-10T10:11:26.465Z,15.8
2017-12-10T10:21:27.680Z,27.8
2017-12-10T10:31:27.098Z,17.5
2017-12-10T10:41:26.175Z,18.1
2017-12-10T10:51:26.661Z,16.7
2017-12-10T11:01:29.286Z,16.1
2017-12-10T11:11:26.665Z,22.4
2017-12-10T11:21:26.701Z,17.7
2017-12-10T11:31:28.617Z,12.4
2017-12-10T11:41:27.545Z,12.1
2017-12-10T11:51:27.364Z,7.6
2017-12-10T12:01:26.738Z,10.0
2017-12-10T12:11:26.860Z,7.7
2017-12-10T12:21:26.732Z,10.0
2017-12-10T12:31:28.291Z,6.6
2017-12-10T12:41:29.936Z,6.7
2017-12-10T12:51:27.459Z,8.2
2017-12-10T13:01:27.930Z,5.7
2017-12-10T13:11:26.902Z,7.1
2017-12-10T13:21:26.542Z,7.3
2017-12-10T13:31:28.738Z,10.4
2017-12-10T13:41:26.911Z,6.0
2017-12-10T13:51:26.553Z,5.6
2017-12-10T14:01:26.702Z,11.4
2017-12-10T14:11:30.525Z,7.7
2017-12-10T14:21:28.043Z,13.0
2017-12-10T14:31:27.552Z,14.5
2017-12-10T14:41:27.494Z,21.7
2017-12-10T14:51:27.234Z,26.8
2017-12-10T15:01:28.030Z,31.9
2017-12-10T15:11:29.906Z,27.7
2017-12-10T15:21:26.966Z,31.3
2017-12-10T15:31:27.991Z,26.4
2017-12-10T15:41:26.667Z,24.5
2017-12-10T15:51:27.077Z,25.2
2017-12-10T16:01:26.412Z,27.9
2017-12-10T16:11:26.939Z,35.8
2017-12-10T16:21:27.082Z,32.2
2017-12-10T16:31:27.129Z,37.5
2017-12-10T16:41:26.299Z,38.7
2017-12-10T16:51:27.207Z,47.9
2017-12-10T17:01:27.408Z,54.4
2017-12-10T17:11:29.081Z,46.2
2017-12-10T17:21:27.443Z,31.8
2017-12-10T17:31:27.479Z,31.9
2017-12-10T17:41:28.587Z,28.0
2017-12-10T17:51:28.999Z,21.9
2017-12-10T18:01:26.647Z,19.4
2017-12-10T18:11:28.134Z,26.7
2017-12-10T18:21:27.848Z,9.0
2017-12-10T18:31:27.164Z,6.3
2017-12-10T18:41:27.428Z,8.6
2017-12-10T18:51:28.428Z,5.3
2017-12-10T19:01:26.849Z,7.3
2017-12-10T19:11:26.188Z,7.9
2017-12-10T19:21:26.943Z,6.8
2017-12-10T19:31:28.079Z,5.5
2017-12-10T19:41:26.328Z,5.9
2017-12-10T19:51:26.772Z,4.0
2017-12-10T20:01:29.152Z,5.7
2017-12-10T20:11:26.905Z,8.9
2017-12-10T20:21:26.863Z,5.5
2017-12-10T20:31:26.996Z,4.9
2017-12-10T20:41:27.943Z,5.6
2017-12-10T20:51:27.931Z,6.8
2017-12-10T21:01:28.827Z,10.4
2017-12-10T21:11:27.047Z,10.6
2017-12-10T21:21:27.128Z,9.4
2017-12-10T21:31:27.444Z,9.7
2017-12-10T21:41:26.527Z,8.5
2017-12-10T21:51:27.242Z,10.8
2017-12-10T22:01:26.352Z,9.4
2017-12-10T22:11:26.725Z,16.5
2017-12-10T22:21:26.466Z,15.4
2017-12-10T22:31:26.691Z,8.5
2017-12-10T22:41:27.500Z,10.2
2017-12-10T22:51:27.375Z,10.9
2017-12-10T23:01:27.139Z,13.1
2017-12-10T23:11:26.590Z,10.9
2017-12-10T23:21:27.187Z,7.5
2017-12-10T23:31:28.377Z,11.1
2017-12-10T23:41:27.093Z,8.7
2017-12-10T23:51:26.227Z,12.6
